createdAt,value
2018-03-29T00:01:24.096Z,95.20
2018-03-29T00:03:51.661Z,94.90
2018-03-29T00:06:19.252Z,95.10
2018-03-29T00:08:46.843Z,95.10
2018-03-29T00:11:14.447Z,95.00
2018-03-29T00:13:42.060Z,95.00
2018-03-29T00:16:10.446Z,95.30
2018-03-29T00:18:38.812Z,95.40
2018-03-29T00:21:06.475Z,95.40
2018-03-29T00:23:34.858Z,95.30
2018-03-29T00:26:02.441Z,95.30
2018-03-29T00:28:30.097Z,95.40
2018-03-29T00:30:57.716Z,95.60
2018-03-29T00:33:25.321Z,95.50
2018-03-29T00:35:52.930Z,95.70
2018-03-29T00:38:20.513Z,95.60
2018-03-29T00:40:48.087Z,95.60
2018-03-29T00:43:16.157Z,95.70
2018-03-29T00:45:43.722Z,95.60
2018-03-29T00:48:12.190Z,95.40
2018-03-29T00:50:39.765Z,95.50
2018-03-29T00:53:19.177Z,95.50
2018-03-29T00:55:47.561Z,95.30
2018-03-29T00:58:15.918Z,95.30
2018-03-29T01:00:43.488Z,95.30
2018-03-29T01:03:11.061Z,95.40
2018-03-29T01:05:40.270Z,95.20
2018-03-29T01:08:08.638Z,95.20
2018-03-29T01:10:37.023Z,95.40
2018-03-29T01:13:05.386Z,95.30
2018-03-29T01:15:32.982Z,95.30
2018-03-29T01:18:01.329Z,95.00
2018-03-29T01:20:28.911Z,95.00
2018-03-29T01:22:56.499Z,95.00
2018-03-29T01:25:24.829Z,94.90
2018-03-29T01:27:52.429Z,94.90
2018-03-29T01:30:20.791Z,94.70
2018-03-29T01:32:48.410Z,94.70
2018-03-29T01:35:15.968Z,94.50
2018-03-29T01:37:43.569Z,95.00
2018-03-29T01:40:11.270Z,94.70
2018-03-29T01:42:38.875Z,95.00
2018-03-29T01:45:06.471Z,95.00
2018-03-29T01:47:34.064Z,94.70
2018-03-29T01:50:01.680Z,94.30
2018-03-29T01:52:29.294Z,94.50
2018-03-29T01:54:56.878Z,94.60
2018-03-29T01:57:24.458Z,94.50
2018-03-29T01:59:52.021Z,94.60
2018-03-29T02:02:19.635Z,94.30
2018-03-29T02:04:47.206Z,94.70
2018-03-29T02:07:14.807Z,94.60
2018-03-29T02:09:42.439Z,94.60
2018-03-29T02:12:10.035Z,94.50
2018-03-29T02:14:38.383Z,94.50
2018-03-29T02:17:06.002Z,94.80
2018-03-29T02:19:33.569Z,94.70
2018-03-29T02:22:01.163Z,94.40
2018-03-29T02:24:28.764Z,94.40
2018-03-29T02:26:56.352Z,94.30
2018-03-29T02:29:24.694Z,94.50
2018-03-29T02:31:52.278Z,94.50
2018-03-29T02:34:19.963Z,94.50
2018-03-29T02:36:47.569Z,94.30
2018-03-29T02:39:15.182Z,94.60
2018-03-29T02:41:42.772Z,94.60
2018-03-29T02:44:10.367Z,94.30
2018-03-29T02:46:37.944Z,94.30
2018-03-29T02:49:05.511Z,94.30
2018-03-29T02:51:33.130Z,94.50
2018-03-29T02:54:00.743Z,94.20
2018-03-29T02:56:28.323Z,94.40
2018-03-29T02:58:55.927Z,94.80
2018-03-29T03:01:23.528Z,94.80
2018-03-29T03:03:52.250Z,95.10
2018-03-29T03:06:19.818Z,95.10
2018-03-29T03:08:47.429Z,95.10
2018-03-29T03:11:15.047Z,94.90
2018-03-29T03:13:43.157Z,94.90
2018-03-29T03:16:10.765Z,94.90
2018-03-29T03:18:38.368Z,94.80
2018-03-29T03:21:06.722Z,95.00
2018-03-29T03:23:34.301Z,95.00
2018-03-29T03:26:01.880Z,95.10
2018-03-29T03:28:30.232Z,95.30
2018-03-29T03:30:57.813Z,95.30
2018-03-29T03:33:25.414Z,95.20
2018-03-29T03:35:52.988Z,95.20
2018-03-29T03:38:20.588Z,95.10
2018-03-29T03:40:48.189Z,95.00
2018-03-29T03:43:16.519Z,95.10
2018-03-29T03:45:44.736Z,95.10
2018-03-29T03:48:12.319Z,95.00
2018-03-29T03:50:40.671Z,95.00
2018-03-29T03:53:08.278Z,95.00
2018-03-29T03:55:35.852Z,95.00
2018-03-29T03:58:03.465Z,95.20
2018-03-29T04:00:31.047Z,94.80
2018-03-29T04:02:58.698Z,95.00
2018-03-29T04:05:26.276Z,95.00
2018-03-29T04:07:53.866Z,95.00
2018-03-29T04:10:21.442Z,95.20
2018-03-29T04:12:49.026Z,95.50
2018-03-29T04:15:16.620Z,95.30
2018-03-29T04:17:45.370Z,95.30
2018-03-29T04:20:14.390Z,95.20
2018-03-29T04:22:41.989Z,95.60
2018-03-29T04:25:10.271Z,95.40
2018-03-29T04:27:38.635Z,95.60
2018-03-29T04:30:06.229Z,95.60
2018-03-29T04:32:34.601Z,95.70
2018-03-29T04:35:02.348Z,95.70
2018-03-29T04:37:29.918Z,95.70
2018-03-29T04:39:57.488Z,95.60
2018-03-29T04:42:25.554Z,95.60
2018-03-29T04:44:53.154Z,95.70
2018-03-29T04:47:21.501Z,95.90
2018-03-29T04:49:49.682Z,95.90
2018-03-29T04:52:17.293Z,95.90
2018-03-29T04:54:45.626Z,95.90
2018-03-29T04:57:13.253Z,95.90
2018-03-29T04:59:40.854Z,96.00
2018-03-29T05:02:08.487Z,96.00
2018-03-29T05:04:36.079Z,96.00
2018-03-29T05:07:03.675Z,95.70
2018-03-29T05:09:31.290Z,95.90
2018-03-29T05:11:58.876Z,95.90
2018-03-29T05:14:26.480Z,95.80
2018-03-29T05:16:54.043Z,95.70
2018-03-29T05:19:22.427Z,95.70
2018-03-29T05:21:50.103Z,95.70
2018-03-29T05:24:17.695Z,95.60
2018-03-29T05:26:48.938Z,95.60
2018-03-29T05:29:16.546Z,95.60
2018-03-29T05:31:44.141Z,95.70
2018-03-29T05:34:11.739Z,95.70
2018-03-29T05:36:39.455Z,95.60
2018-03-29T05:39:07.058Z,95.40
2018-03-29T05:41:35.400Z,95.50
2018-03-29T05:44:03.018Z,95.50
2018-03-29T05:46:30.619Z,95.30
2018-03-29T05:48:58.194Z,95.50
2018-03-29T05:51:25.769Z,95.60
2018-03-29T05:53:53.431Z,95.30
2018-03-29T05:56:21.037Z,95.20
2018-03-29T05:58:48.628Z,95.20
2018-03-29T06:01:16.199Z,95.30
2018-03-29T06:03:43.761Z,95.20
2018-03-29T06:06:11.378Z,95.00
2018-03-29T06:08:38.968Z,95.20
2018-03-29T06:11:06.556Z,95.50
2018-03-29T06:14:07.532Z,94.90
2018-03-29T06:16:40.848Z,95.00
2018-03-29T06:19:09.246Z,95.10
2018-03-29T06:21:36.849Z,95.00
2018-03-29T06:24:04.511Z,94.90
2018-03-29T06:26:32.108Z,95.10
2018-03-29T06:28:59.712Z,95.00
2018-03-29T06:31:27.303Z,95.10
2018-03-29T06:33:54.916Z,95.00
2018-03-29T06:36:22.498Z,95.00
2018-03-29T06:38:50.073Z,95.00
2018-03-29T06:41:17.653Z,94.90
2018-03-29T06:43:46.023Z,95.20
2018-03-29T06:46:13.662Z,95.20
2018-03-29T06:48:42.537Z,94.90
2018-03-29T06:51:10.944Z,95.10
2018-03-29T06:53:38.574Z,94.80
2018-03-29T06:56:06.192Z,95.10
2018-03-29T06:58:33.786Z,94.90
2018-03-29T07:01:01.424Z,94.70
2018-03-29T07:03:29.053Z,94.70
2018-03-29T07:05:56.667Z,94.70
2018-03-29T07:08:24.246Z,94.80
2018-03-29T07:10:51.828Z,94.80
2018-03-29T07:13:19.551Z,94.70
2018-03-29T07:15:47.168Z,94.40
2018-03-29T07:18:14.775Z,94.30
2018-03-29T07:20:43.185Z,94.40
2018-03-29T07:23:10.777Z,94.30
2018-03-29T07:25:38.357Z,94.30
2018-03-29T07:28:05.971Z,94.20
2018-03-29T07:30:33.603Z,94.50
2018-03-29T07:33:01.155Z,94.40
2018-03-29T07:35:28.808Z,94.60
2018-03-29T07:37:56.443Z,94.50
2018-03-29T07:40:24.025Z,94.50
2018-03-29T07:42:52.350Z,94.40
2018-03-29T07:45:19.998Z,94.50
2018-03-29T07:47:47.565Z,94.30
2018-03-29T07:50:15.952Z,94.60
2018-03-29T07:52:43.542Z,94.50
2018-03-29T07:55:11.130Z,94.80
2018-03-29T07:57:38.739Z,94.30
2018-03-29T08:00:06.357Z,94.40
2018-03-29T08:02:33.957Z,94.30
2018-03-29T08:05:01.581Z,94.40
2018-03-29T08:07:29.173Z,94.40
2018-03-29T08:09:56.763Z,94.40
2018-03-29T08:12:24.379Z,94.30
2018-03-29T08:14:51.991Z,94.40
2018-03-29T08:17:19.574Z,94.20
2018-03-29T08:19:47.193Z,94.30
2018-03-29T08:22:14.780Z,94.00
2018-03-29T08:24:42.399Z,94.00
2018-03-29T08:27:10.042Z,93.50
2018-03-29T08:29:37.662Z,93.70
2018-03-29T08:32:06.043Z,94.10
2018-03-29T08:34:33.648Z,93.30
2018-03-29T08:37:02.038Z,92.70
2018-03-29T08:39:29.677Z,92.40
2018-03-29T08:41:57.297Z,92.70
2018-03-29T08:44:24.879Z,92.20
2018-03-29T08:46:52.472Z,91.70
2018-03-29T08:49:20.083Z,91.60
2018-03-29T08:51:47.751Z,91.70
2018-03-29T08:54:15.365Z,91.90
2018-03-29T08:56:42.972Z,91.80
2018-03-29T08:59:11.438Z,90.60
2018-03-29T09:01:39.091Z,90.60
2018-03-29T09:04:07.524Z,90.60
2018-03-29T09:06:35.116Z,90.10
2018-03-29T09:09:02.767Z,89.90
2018-03-29T09:11:30.376Z,90.10
2018-03-29T09:13:57.978Z,90.40
2018-03-29T09:16:25.578Z,90.20
2018-03-29T09:18:53.201Z,90.10
2018-03-29T09:21:21.555Z,89.10
2018-03-29T09:23:49.147Z,89.10
2018-03-29T09:26:16.749Z,90.20
2018-03-29T09:28:44.339Z,88.80
2018-03-29T09:31:11.932Z,89.20
2018-03-29T09:33:39.529Z,89.00
2018-03-29T09:36:07.112Z,87.80
2018-03-29T09:38:34.824Z,88.20
2018-03-29T09:41:02.425Z,87.60
2018-03-29T09:43:30.050Z,88.00
2018-03-29T09:45:57.655Z,89.40
2018-03-29T09:48:25.293Z,89.30
2018-03-29T09:50:52.899Z,89.90
2018-03-29T09:53:20.495Z,89.20
2018-03-29T09:55:48.128Z,89.00
2018-03-29T09:58:15.752Z,90.00
2018-03-29T10:00:43.372Z,88.70
2018-03-29T10:03:11.042Z,89.40
2018-03-29T10:05:38.633Z,87.70
2018-03-29T10:08:06.242Z,88.40
2018-03-29T10:10:33.891Z,87.50
2018-03-29T10:13:01.491Z,86.90
2018-03-29T10:15:29.092Z,88.20
2018-03-29T10:17:56.676Z,87.30
2018-03-29T10:20:24.317Z,86.40
2018-03-29T10:22:51.910Z,86.60
2018-03-29T10:25:19.503Z,84.80
2018-03-29T10:27:47.887Z,84.30
2018-03-29T10:30:15.497Z,84.20
2018-03-29T10:32:43.083Z,82.40
2018-03-29T10:35:10.682Z,81.40
2018-03-29T10:37:38.283Z,81.80
2018-03-29T10:40:05.938Z,82.20
2018-03-29T10:42:33.535Z,81.50
2018-03-29T10:45:01.134Z,81.90
2018-03-29T10:47:29.502Z,79.90
2018-03-29T10:49:57.368Z,79.80
2018-03-29T10:52:25.781Z,77.20
2018-03-29T10:54:53.370Z,77.10
2018-03-29T10:57:21.016Z,77.20
2018-03-29T10:59:48.642Z,78.90
2018-03-29T11:02:16.261Z,73.50
2018-03-29T11:04:44.656Z,72.70
2018-03-29T11:07:12.277Z,72.70
2018-03-29T11:09:40.670Z,71.60
2018-03-29T11:12:09.012Z,68.60
2018-03-29T11:14:36.599Z,68.50
2018-03-29T11:17:04.260Z,66.20
2018-03-29T11:19:31.880Z,68.30
2018-03-29T11:21:59.520Z,68.40
2018-03-29T11:24:29.192Z,68.40
2018-03-29T11:26:56.763Z,68.30
2018-03-29T11:29:24.370Z,68.00
2018-03-29T11:31:51.979Z,66.40
2018-03-29T11:34:19.686Z,65.30
2018-03-29T11:36:48.257Z,67.90
2018-03-29T11:39:15.872Z,67.80
2018-03-29T11:41:43.544Z,67.40
2018-03-29T11:44:11.217Z,66.60
2018-03-29T11:46:38.777Z,66.10
2018-03-29T11:49:06.383Z,68.50
2018-03-29T11:51:36.386Z,68.40
2018-03-29T11:54:04.013Z,68.40
2018-03-29T11:56:31.647Z,68.20
2018-03-29T11:59:00.016Z,69.30
2018-03-29T12:01:27.610Z,69.30
2018-03-29T12:03:55.977Z,69.90
2018-03-29T12:06:24.341Z,70.30
2018-03-29T12:08:51.931Z,70.30
2018-03-29T12:11:19.530Z,69.70
2018-03-29T12:13:47.170Z,68.20
2018-03-29T12:16:15.676Z,71.70
2018-03-29T12:18:43.276Z,71.70
2018-03-29T12:21:10.960Z,73.40
2018-03-29T12:23:38.518Z,74.40
2018-03-29T12:26:06.136Z,76.40
2018-03-29T12:28:33.797Z,79.90
2018-03-29T12:31:01.436Z,80.20
2018-03-29T12:33:29.795Z,82.20
2018-03-29T12:35:57.412Z,82.10
2018-03-29T12:38:25.039Z,84.60
2018-03-29T12:40:52.651Z,84.10
2018-03-29T12:43:20.231Z,84.70
2018-03-29T12:45:47.807Z,83.80
2018-03-29T12:48:15.387Z,85.70
2018-03-29T12:50:42.959Z,88.00
2018-03-29T12:53:10.561Z,88.80
2018-03-29T12:55:42.183Z,85.20
2018-03-29T12:58:12.636Z,84.80
2018-03-29T13:00:41.064Z,88.00
2018-03-29T13:03:09.218Z,88.00
2018-03-29T13:05:36.806Z,87.50
2018-03-29T13:08:04.468Z,84.90
2018-03-29T13:10:32.044Z,85.60
2018-03-29T13:12:59.624Z,84.70
2018-03-29T13:15:27.239Z,86.20
2018-03-29T13:17:54.768Z,82.70
2018-03-29T13:20:22.329Z,84.80
2018-03-29T13:22:49.880Z,84.40
2018-03-29T13:25:17.507Z,82.50
2018-03-29T13:27:45.838Z,82.30
2018-03-29T13:30:13.447Z,82.10
2018-03-29T13:32:41.781Z,77.90
2018-03-29T13:35:09.343Z,77.70
2018-03-29T13:37:36.939Z,75.90
2018-03-29T13:40:05.369Z,74.00
2018-03-29T13:42:33.750Z,75.70
2018-03-29T13:45:01.358Z,75.60
2018-03-29T13:47:28.979Z,73.40
2018-03-29T13:49:56.570Z,76.10
2018-03-29T13:52:24.221Z,73.80
2018-03-29T13:54:51.811Z,74.80
2018-03-29T13:57:19.372Z,72.90
2018-03-29T13:59:47.772Z,70.50
2018-03-29T14:02:15.338Z,69.00
2018-03-29T14:04:42.911Z,69.60
2018-03-29T14:07:10.484Z,71.70
2018-03-29T14:09:38.819Z,67.40
2018-03-29T14:12:06.438Z,67.40
2018-03-29T14:14:34.634Z,65.90
2018-03-29T14:17:02.204Z,68.80
2018-03-29T14:19:29.777Z,64.60
2018-03-29T14:21:57.419Z,66.30
2018-03-29T14:24:25.033Z,67.40
2018-03-29T14:26:52.623Z,66.40
2018-03-29T14:29:20.221Z,62.40
2018-03-29T14:31:48.386Z,63.00
2018-03-29T14:34:16.727Z,60.50
2018-03-29T14:36:44.296Z,60.40
2018-03-29T14:39:11.886Z,58.70
2018-03-29T14:41:40.288Z,58.80
2018-03-29T14:44:07.903Z,58.80
2018-03-29T14:46:35.471Z,59.70
2018-03-29T14:49:03.102Z,56.60
2018-03-29T14:51:31.470Z,58.50
2018-03-29T14:53:59.059Z,58.60
2018-03-29T14:56:26.631Z,60.20
2018-03-29T14:58:54.207Z,59.90
2018-03-29T15:01:21.774Z,58.30
2018-03-29T15:03:49.351Z,57.70
2018-03-29T15:06:16.968Z,54.70
2018-03-29T15:08:44.542Z,54.60
2018-03-29T15:11:12.120Z,58.20
2018-03-29T15:13:39.854Z,57.10
2018-03-29T15:16:08.022Z,53.70
2018-03-29T15:18:36.375Z,50.80
2018-03-29T15:21:04.494Z,50.70
2018-03-29T15:23:32.723Z,52.50
2018-03-29T15:26:00.383Z,51.70
2018-03-29T15:28:28.842Z,50.20
2018-03-29T15:30:56.494Z,50.10
2018-03-29T15:33:24.149Z,50.40
2018-03-29T15:35:51.828Z,50.00
2018-03-29T15:38:19.453Z,53.50
2018-03-29T15:40:47.163Z,52.10
2018-03-29T15:43:16.219Z,52.20
2018-03-29T15:45:44.025Z,50.50
2018-03-29T15:48:12.577Z,50.90
2018-03-29T15:50:40.746Z,48.60
2018-03-29T15:53:08.809Z,49.50
2018-03-29T15:55:36.468Z,49.20
2018-03-29T15:58:04.128Z,48.20
2018-03-29T16:00:31.814Z,48.50
2018-03-29T16:02:59.463Z,47.10
2018-03-29T16:05:27.148Z,48.70
2018-03-29T16:07:55.541Z,48.60
2018-03-29T16:10:23.154Z,48.50
2018-03-29T16:12:50.796Z,47.50
2018-03-29T16:15:18.433Z,48.90
2018-03-29T16:17:46.059Z,49.00
2018-03-29T16:20:13.659Z,49.40
2018-03-29T16:22:41.255Z,50.00
2018-03-29T16:25:09.687Z,49.20
2018-03-29T16:27:37.335Z,49.20
2018-03-29T16:30:05.024Z,48.80
2018-03-29T16:32:32.667Z,48.80
2018-03-29T16:35:00.322Z,48.60
2018-03-29T16:37:28.496Z,49.60
2018-03-29T16:39:56.287Z,48.30
2018-03-29T16:42:23.898Z,49.00
2018-03-29T16:44:51.500Z,49.00
2018-03-29T16:47:19.108Z,52.10
2018-03-29T16:49:46.714Z,53.40
2018-03-29T16:52:15.117Z,55.80
2018-03-29T16:54:43.497Z,56.90
2018-03-29T16:57:11.141Z,56.90
2018-03-29T16:59:38.815Z,59.40
2018-03-29T17:02:08.709Z,59.40
2018-03-29T17:04:37.444Z,63.30
2018-03-29T17:07:05.946Z,63.30
2018-03-29T17:09:33.678Z,65.10
2018-03-29T17:12:01.367Z,64.00
2018-03-29T17:14:28.976Z,65.50
2018-03-29T17:16:56.599Z,65.70
2018-03-29T17:19:24.303Z,66.90
2018-03-29T17:21:51.901Z,68.70
2018-03-29T17:24:19.510Z,67.90
2018-03-29T17:26:47.244Z,67.80
2018-03-29T17:29:15.636Z,69.90
2018-03-29T17:31:43.278Z,69.80
2018-03-29T17:34:10.915Z,72.50
2018-03-29T17:36:38.556Z,75.40
2018-03-29T17:39:06.247Z,73.50
2018-03-29T17:41:33.850Z,76.40
2018-03-29T17:44:01.482Z,78.10
2018-03-29T17:46:29.146Z,75.90
2018-03-29T17:48:56.786Z,78.20
2018-03-29T17:51:24.398Z,78.10
2018-03-29T17:53:51.967Z,79.80
2018-03-29T17:56:19.663Z,76.40
2018-03-29T17:58:48.043Z,78.00
2018-03-29T18:01:15.657Z,77.90
2018-03-29T18:03:43.279Z,80.20
2018-03-29T18:06:11.657Z,79.40
2018-03-29T18:08:40.018Z,78.10
2018-03-29T18:11:07.620Z,78.00
2018-03-29T18:13:36.009Z,78.10
2018-03-29T18:16:05.076Z,78.50
2018-03-29T18:18:32.674Z,78.50
2018-03-29T18:21:00.313Z,79.40
2018-03-29T18:23:27.925Z,80.40
2018-03-29T18:25:55.531Z,81.00
2018-03-29T18:28:23.143Z,79.80
2018-03-29T18:30:50.729Z,79.20
2018-03-29T18:33:18.366Z,80.30
2018-03-29T18:35:45.990Z,79.60
2018-03-29T18:38:13.605Z,80.10
2018-03-29T18:40:41.200Z,79.20
2018-03-29T18:43:08.800Z,79.30
2018-03-29T18:45:37.289Z,79.90
2018-03-29T18:48:05.678Z,80.50
2018-03-29T18:50:34.062Z,81.30
2018-03-29T18:53:01.663Z,81.30
2018-03-29T18:55:29.270Z,81.10
2018-03-29T18:57:56.882Z,81.40
2018-03-29T19:00:24.528Z,82.30
2018-03-29T19:02:52.150Z,83.20
2018-03-29T19:05:19.755Z,83.80
2018-03-29T19:07:47.342Z,83.40
2018-03-29T19:10:14.978Z,83.50
2018-03-29T19:12:43.027Z,84.20
2018-03-29T19:15:10.749Z,84.40
2018-03-29T19:17:39.721Z,84.30
2018-03-29T19:20:08.009Z,84.30
2018-03-29T19:22:35.784Z,84.70
2018-03-29T19:25:04.198Z,85.40
2018-03-29T19:27:31.996Z,85.40
2018-03-29T19:29:59.622Z,85.30
2018-03-29T19:32:27.262Z,84.80
2018-03-29T19:34:54.882Z,85.70
2018-03-29T19:37:22.512Z,84.50
2018-03-29T19:39:50.902Z,84.20
2018-03-29T19:42:18.500Z,84.20
2018-03-29T19:44:46.106Z,84.30
2018-03-29T19:47:13.749Z,84.00
2018-03-29T19:49:41.482Z,83.80
2018-03-29T19:52:09.096Z,84.00
2018-03-29T19:54:36.689Z,83.60
2018-03-29T19:57:04.294Z,83.40
2018-03-29T19:59:31.897Z,83.20
2018-03-29T20:01:59.510Z,82.80
2018-03-29T20:04:27.117Z,82.70
2018-03-29T20:06:54.744Z,82.90
2018-03-29T20:09:22.359Z,83.50
2018-03-29T20:11:49.984Z,83.80
2018-03-29T20:14:17.570Z,83.80
2018-03-29T20:16:45.215Z,84.10
2018-03-29T20:19:12.816Z,83.60
2018-03-29T20:21:40.412Z,83.90
2018-03-29T20:24:08.818Z,84.20
2018-03-29T20:26:36.848Z,84.10
2018-03-29T20:29:04.454Z,84.10
2018-03-29T20:31:32.058Z,84.40
2018-03-29T20:33:59.623Z,84.50
2018-03-29T20:36:27.245Z,84.40
2018-03-29T20:38:54.815Z,85.20
2018-03-29T20:41:23.180Z,84.40
2018-03-29T20:43:50.876Z,85.20
2018-03-29T20:46:18.456Z,84.90
2018-03-29T20:48:46.988Z,85.80
2018-03-29T20:51:15.352Z,85.70
2018-03-29T20:53:42.975Z,85.50
2018-03-29T20:56:10.585Z,85.90
2018-03-29T20:58:38.171Z,85.80
2018-03-29T21:01:06.374Z,86.30
2018-03-29T21:03:34.006Z,86.30
2018-03-29T21:06:02.358Z,86.30
2018-03-29T21:08:29.988Z,86.20
2018-03-29T21:10:57.596Z,86.10
2018-03-29T21:13:25.188Z,86.20
2018-03-29T21:15:53.326Z,86.00
2018-03-29T21:18:20.912Z,86.10
2018-03-29T21:20:48.504Z,86.10
2018-03-29T21:23:16.111Z,86.20
2018-03-29T21:25:43.751Z,85.90
2018-03-29T21:28:11.344Z,86.20
2018-03-29T21:30:38.947Z,86.20
2018-03-29T21:33:06.609Z,86.70
2018-03-29T21:35:34.217Z,86.40
2018-03-29T21:38:01.831Z,86.70
2018-03-29T21:40:29.435Z,86.80
2018-03-29T21:42:57.132Z,86.70
2018-03-29T21:45:24.719Z,86.80
2018-03-29T21:47:52.336Z,87.20
2018-03-29T21:50:20.707Z,87.40
2018-03-29T21:52:49.106Z,87.30
2018-03-29T21:55:16.687Z,87.20
2018-03-29T21:57:44.299Z,86.80
2018-03-29T22:00:11.896Z,86.90
2018-03-29T22:02:39.472Z,86.70
2018-03-29T22:05:07.042Z,86.60
2018-03-29T22:07:35.126Z,85.90
2018-03-29T22:10:02.765Z,85.80
2018-03-29T22:12:31.101Z,86.00
2018-03-29T22:14:58.705Z,86.00
2018-03-29T22:17:27.049Z,84.60
2018-03-29T22:19:54.649Z,84.60
2018-03-29T22:22:22.233Z,84.50
2018-03-29T22:24:49.809Z,84.40
2018-03-29T22:27:17.415Z,84.00
2018-03-29T22:29:45.020Z,84.40
2018-03-29T22:32:12.625Z,84.30
2018-03-29T22:34:40.331Z,83.90
2018-03-29T22:37:07.923Z,83.70
2018-03-29T22:39:36.365Z,83.50
2018-03-29T22:42:03.946Z,84.00
2018-03-29T22:44:31.546Z,83.50
2018-03-29T22:46:59.144Z,83.80
2018-03-29T22:49:26.928Z,84.20
2018-03-29T22:51:54.539Z,84.60
2018-03-29T22:54:22.113Z,84.90
2018-03-29T22:56:49.725Z,84.90
2018-03-29T22:59:17.326Z,85.00
2018-03-29T23:01:44.920Z,84.50
2018-03-29T23:04:12.523Z,85.30
2018-03-29T23:06:40.109Z,84.80
2018-03-29T23:09:07.709Z,85.40
2018-03-29T23:11:35.289Z,85.10
2018-03-29T23:14:02.889Z,84.90
2018-03-29T23:16:30.466Z,85.20
2018-03-29T23:18:58.797Z,85.10
2018-03-29T23:21:26.444Z,85.30
2018-03-29T23:23:54.058Z,85.20
2018-03-29T23:26:21.666Z,85.40
2018-03-29T23:28:50.486Z,85.30
2018-03-29T23:31:18.118Z,85.40
2018-03-29T23:33:46.446Z,85.50
2018-03-29T23:36:14.056Z,85.50
2018-03-29T23:38:41.707Z,85.50
2018-03-29T23:41:09.301Z,85.40
2018-03-29T23:43:37.659Z,85.10
2018-03-29T23:46:05.253Z,85.10
2018-03-29T23:48:32.873Z,85.30
2018-03-29T23:51:00.467Z,84.40
2018-03-29T23:53:28.809Z,86.40
2018-03-29T23:55:57.289Z,85.80
2018-03-29T23:58:24.877Z,85.70
